Time;durP1;ratioP1;P1;durP2;ratioP2;P2;SDS_P1;SDS_P2;PMS_P1;PMS_P2;Temp;Humidity;BMP_temperature;BMP_pressure;BME280_temperature;BME280_humidity;BME280_pressure;Samples;Min_cycle;Max_cycle;Signal;HPM_P1;HPM_P2
2021/12/25 00:00:25;;;;;;;25.45;13.70;;;-11.50;93.50;;;;;;4989722;28;20114;-77
2021/12/25 00:02:51;;;;;;;12.27;5.90;;;-11.50;93.50;;;;;;4992038;28;20122;-78
2021/12/25 00:05:17;;;;;;;19.48;11.95;;;-11.40;93.90;;;;;;4994185;28;20027;-77
2021/12/25 00:07:43;;;;;;;27.60;14.30;;;-11.40;93.80;;;;;;4979881;28;20082;-77
2021/12/25 00:10:09;;;;;;;18.90;10.13;;;-11.40;93.70;;;;;;4994088;28;20018;-77
2021/12/25 00:12:35;;;;;;;22.55;13.35;;;-11.40;93.60;;;;;;4993807;28;20030;-77
2021/12/25 00:15:03;;;;;;;23.23;13.48;;;-11.40;93.70;;;;;;4989353;28;20061;-78
2021/12/25 00:17:29;;;;;;;19.58;11.32;;;-11.30;94.10;;;;;;4986860;28;20048;-78
2021/12/25 00:19:55;;;;;;;15.23;10.77;;;-11.30;94.10;;;;;;4989348;28;20026;-77
2021/12/25 00:22:21;;;;;;;11.95;6.22;;;-11.30;94.20;;;;;;4985135;28;20038;-77
2021/12/25 00:24:48;;;;;;;24.20;12.38;;;-11.20;94.40;;;;;;4992536;28;20045;-78
2021/12/25 00:34:47;;;;;;;24.38;9.75;;;-11.20;94.20;;;;;;4993654;28;20027;-77
2021/12/25 00:37:13;;;;;;;32.15;11.00;;;-11.30;94.30;;;;;;4993602;28;20074;-76
2021/12/25 00:39:38;;;;;;;18.90;10.63;;;-11.20;94.50;;;;;;4993835;28;20062;-75
2021/12/25 00:42:06;;;;;;;24.05;12.63;;;-11.20;94.50;;;;;;4993186;28;20030;-76
2021/12/25 00:44:33;;;;;;;26.50;12.85;;;-11.30;94.40;;;;;;4994261;28;20395;-76
2021/12/25 00:46:59;;;;;;;19.40;9.63;;;-11.30;94.60;;;;;;4993942;28;20027;-76
2021/12/25 00:49:26;;;;;;;22.87;10.73;;;-11.30;94.70;;;;;;4993997;28;20022;-76
2021/12/25 00:51:52;;;;;;;23.80;13.20;;;-11.20;94.70;;;;;;4994132;28;20170;-76
2021/12/25 00:54:18;;;;;;;24.13;11.73;;;-11.20;94.80;;;;;;4993354;28;20404;-76
2021/12/25 00:56:44;;;;;;;24.70;14.10;;;-11.10;95.10;;;;;;4993826;28;20029;-77
2021/12/25 00:59:10;;;;;;;30.10;12.07;;;-11.00;95.20;;;;;;4993686;28;20495;-78
2021/12/25 01:01:37;;;;;;;24.33;13.82;;;-11.00;95.20;;;;;;4993934;28;20050;-77
2021/12/25 01:04:03;;;;;;;23.55;14.15;;;-10.90;95.00;;;;;;4994672;28;20072;-76
2021/12/25 01:06:29;;;;;;;23.13;12.82;;;-10.90;95.10;;;;;;4994061;28;20030;-77
2021/12/25 01:08:55;;;;;;;26.17;15.43;;;-10.90;95.10;;;;;;4993276;28;20026;-77
2021/12/25 01:11:24;;;;;;;21.63;11.30;;;-10.80;95.20;;;;;;4993721;28;20400;-77
2021/12/25 01:13:57;;;;;;;23.85;11.05;;;-10.80;95.30;;;;;;4992279;28;20066;-76
2021/12/25 01:29:35;;;;;;;22.63;11.23;;;-10.60;95.30;;;;;;4997423;28;20475;-78
2021/12/25 01:32:19;;;;;;;21.25;12.45;;;-10.60;95.10;;;;;;4995227;28;20026;-76
2021/12/25 01:37:23;;;;;;;20.17;11.93;;;-10.50;95.20;;;;;;4994314;28;20403;-76
2021/12/25 01:40:14;;;;;;;11.52;7.05;;;-10.50;95.20;;;;;;4996904;28;20053;-78
2021/12/25 01:48:04;;;;;;;24.70;13.48;;;-10.50;95.30;;;;;;4988924;28;20033;-75
2021/12/25 01:50:30;;;;;;;;;;;-10.50;95.10;;;;;;4977753;28;20062;-76
2021/12/25 01:52:57;;;;;;;16.43;8.27;;;-10.50;95.10;;;;;;4979457;28;20373;-76
2021/12/25 01:55:26;;;;;;;22.42;11.48;;;-10.50;94.60;;;;;;4996954;28;20050;-77
2021/12/25 01:57:58;;;;;;;17.60;7.70;;;-10.50;94.40;;;;;;4995240;28;20479;-78
2021/12/25 02:00:42;;;;;;;29.85;14.55;;;-10.60;94.50;;;;;;4996982;28;20038;-75
2021/12/25 02:03:11;;;;;;;24.80;11.45;;;-10.60;94.50;;;;;;4996764;28;20050;-77
2021/12/25 02:05:37;;;;;;;20.92;11.45;;;-10.60;94.70;;;;;;4996368;28;20076;-76
2021/12/25 02:08:03;;;;;;;26.67;14.45;;;-10.60;94.90;;;;;;4996491;28;20369;-76
2021/12/25 02:10:29;;;;;;;30.65;15.48;;;-10.50;95.00;;;;;;4996807;28;20031;-77
2021/12/25 02:12:55;;;;;;;25.85;12.93;;;-10.50;95.10;;;;;;4996510;28;20030;-78
2021/12/25 02:15:24;;;;;;;25.73;13.57;;;-10.40;94.70;;;;;;4995215;28;20034;-79
2021/12/25 02:20:45;;;;;;;14.60;7.13;;;-10.50;94.90;;;;;;4996149;28;20072;-77
2021/12/25 02:23:19;;;;;;;27.70;14.32;;;-10.40;95.10;;;;;;4996203;28;20387;-77
2021/12/25 02:25:45;;;;;;;20.05;9.98;;;-10.40;95.10;;;;;;4996112;28;20109;-77
2021/12/25 02:28:13;;;;;;;23.10;13.63;;;-10.40;95.20;;;;;;4996136;28;20146;-76
2021/12/25 02:30:40;;;;;;;16.10;8.13;;;-10.30;95.30;;;;;;4996322;28;20023;-77
2021/12/25 02:33:07;;;;;;;24.50;14.98;;;-10.30;95.30;;;;;;4994449;28;20104;-76
2021/12/25 02:35:32;;;;;;;17.00;9.57;;;-10.30;95.00;;;;;;4996269;28;20187;-77
2021/12/25 02:37:58;;;;;;;33.13;16.38;;;-10.30;95.10;;;;;;4992402;28;20070;-79
2021/12/25 02:40:24;;;;;;;28.45;17.20;;;-10.20;95.00;;;;;;4995827;28;20383;-77
2021/12/25 02:42:50;;;;;;;24.95;15.00;;;-10.20;95.10;;;;;;4996404;28;20027;-77
2021/12/25 02:45:18;;;;;;;21.13;10.00;;;-10.20;95.30;;;;;;4997137;28;20026;-77
2021/12/25 02:47:47;;;;;;;14.95;7.97;;;-10.20;94.80;;;;;;4996873;28;20022;-78
2021/12/25 02:50:21;;;;;;;27.75;15.50;;;-10.20;94.80;;;;;;4994879;28;20108;-76
2021/12/25 02:52:46;;;;;;;28.10;15.85;;;-10.20;94.90;;;;;;4995395;28;20396;-77
2021/12/25 02:55:12;;;;;;;25.23;13.20;;;-10.20;95.10;;;;;;4995473;28;20030;-76
2021/12/25 02:57:38;;;;;;;31.15;17.75;;;-10.20;95.20;;;;;;4995563;28;20026;-77
2021/12/25 03:00:08;;;;;;;25.33;15.23;;;-10.20;95.20;;;;;;4995356;28;20058;-77
2021/12/25 03:02:34;;;;;;;31.63;15.05;;;-10.20;95.30;;;;;;4996061;28;20030;-76
2021/12/25 03:05:01;;;;;;;25.00;13.23;;;-10.10;95.40;;;;;;4995381;28;20097;-76
2021/12/25 03:07:27;;;;;;;36.67;18.58;;;-10.10;95.20;;;;;;5010414;28;20377;-77
2021/12/25 03:09:53;;;;;;;22.35;12.70;;;-10.10;95.10;;;;;;4995484;28;20069;-78
2021/12/25 03:12:30;;;;;;;23.58;10.20;;;-10.10;94.70;;;;;;4996489;28;20460;-77
2021/12/25 03:15:12;;;;;;;16.35;10.38;;;-10.20;94.60;;;;;;4995103;28;20038;-75
2021/12/25 03:17:38;;;;;;;32.67;15.15;;;-10.10;94.80;;;;;;4995279;28;20023;-76
2021/12/25 03:20:07;;;;;;;32.13;16.10;;;-10.10;95.00;;;;;;4995899;28;20033;-77
2021/12/25 03:22:33;;;;;;;25.40;10.35;;;-10.10;94.70;;;;;;4995746;28;20022;-76
2021/12/25 03:25:00;;;;;;;33.28;15.93;;;-10.20;94.50;;;;;;4995781;28;20136;-76
2021/12/25 03:27:26;;;;;;;21.38;10.48;;;-10.20;94.60;;;;;;4994988;28;20030;-77
2021/12/25 03:29:52;;;;;;;30.65;15.50;;;-10.20;94.40;;;;;;4995108;28;20026;-76
2021/12/25 03:32:18;;;;;;;20.65;10.85;;;-10.30;94.60;;;;;;4994685;28;20030;-76
2021/12/25 03:34:44;;;;;;;27.33;14.07;;;-10.30;95.00;;;;;;4995208;28;20030;-77
2021/12/25 03:37:10;;;;;;;28.35;17.40;;;-10.30;94.80;;;;;;4994645;28;20038;-77
2021/12/25 03:39:36;;;;;;;21.27;12.85;;;-10.30;94.80;;;;;;4993990;28;20053;-77
2021/12/25 03:42:02;;;;;;;18.77;9.82;;;-10.30;95.00;;;;;;4994952;28;20022;-77
2021/12/25 03:44:29;;;;;;;10.90;8.18;;;-10.20;94.80;;;;;;4994585;28;20472;-78
2021/12/25 03:46:59;;;;;;;29.52;16.05;;;-10.30;94.80;;;;;;4994711;28;20026;-78
2021/12/25 03:49:45;;;;;;;27.42;14.13;;;-10.30;95.00;;;;;;4993125;28;20034;-78
2021/12/25 03:57:49;;;;;;;19.05;10.93;;;-10.20;95.40;;;;;;4994914;28;20509;-77
2021/12/25 04:00:16;;;;;;;24.75;12.80;;;-10.10;95.40;;;;;;4994724;28;20072;-78
2021/12/25 04:02:54;;;;;;;14.48;9.32;;;-10.10;95.30;;;;;;5008665;28;20050;-76
2021/12/25 04:05:25;;;;;;;23.73;12.82;;;-10.10;95.30;;;;;;4994479;28;20034;-76
2021/12/25 04:08:04;;;;;;;9.35;7.40;;;-10.10;95.20;;;;;;4994165;28;20030;-77
2021/12/25 04:10:36;;;;;;;25.58;12.95;;;-10.10;95.20;;;;;;4994142;28;20080;-77
2021/12/25 04:13:04;;;;;;;14.93;8.27;;;-10.10;95.10;;;;;;4993745;28;20402;-76
2021/12/25 04:15:30;;;;;;;20.70;11.02;;;-10.10;95.20;;;;;;4993931;28;20019;-75
2021/12/25 04:17:55;;;;;;;27.48;14.00;;;-10.10;95.20;;;;;;4994826;28;20027;-76
2021/12/25 04:20:21;;;;;;;24.60;14.88;;;-10.10;95.40;;;;;;4994402;28;20102;-77
2021/12/25 04:23:09;;;;;;;23.25;10.35;;;-10.10;95.60;;;;;;4992755;28;20118;-77
2021/12/25 04:25:36;;;;;;;22.50;13.45;;;-10.00;95.70;;;;;;5009023;28;20046;-76
2021/12/25 04:28:13;;;;;;;30.52;12.02;;;-10.00;96.00;;;;;;4995144;28;20034;-76
2021/12/25 04:42:42;;;;;;;29.52;13.85;;;-9.90;95.80;;;;;;4993502;28;20034;-77
2021/12/25 05:03:39;;;;;;;24.10;11.80;;;-9.90;95.40;;;;;;4994026;28;20036;-77
2021/12/25 05:06:05;;;;;;;19.70;12.27;;;-9.90;95.50;;;;;;4994476;28;20035;-77
2021/12/25 05:08:31;;;;;;;24.55;12.02;;;-9.80;95.70;;;;;;4993113;28;20037;-78
2021/12/25 05:10:57;;;;;;;17.60;9.55;;;-9.80;95.80;;;;;;4994087;28;20429;-77
2021/12/25 05:13:23;;;;;;;15.93;9.85;;;-9.70;96.00;;;;;;4977707;28;20451;-75
2021/12/25 05:15:49;;;;;;;23.47;11.03;;;-9.70;96.00;;;;;;4996852;28;20471;-77
2021/12/25 05:18:15;;;;;;;20.05;11.30;;;-9.70;95.90;;;;;;4999070;28;20031;-76
2021/12/25 05:20:42;;;;;;;15.55;10.80;;;-9.70;96.00;;;;;;4997205;28;20083;-76
2021/12/25 05:23:08;;;;;;;19.30;9.68;;;-9.60;95.90;;;;;;4998072;28;20459;-77
2021/12/25 05:25:34;;;;;;;24.37;14.70;;;-9.60;95.80;;;;;;4996360;28;20058;-77
2021/12/25 05:28:02;;;;;;;19.10;10.63;;;-9.60;95.80;;;;;;4997311;28;20953;-79
2021/12/25 05:30:29;;;;;;;22.17;11.20;;;-9.60;96.00;;;;;;4997427;28;20025;-78
2021/12/25 05:32:55;;;;;;;25.02;15.10;;;-9.60;96.00;;;;;;4997035;28;20031;-77
2021/12/25 05:35:21;;;;;;;23.80;13.90;;;-9.50;96.20;;;;;;4997026;28;20034;-77
2021/12/25 05:37:47;;;;;;;24.77;13.80;;;-9.50;96.20;;;;;;4997390;28;20046;-77
2021/12/25 05:40:13;;;;;;;18.05;11.90;;;-9.50;96.30;;;;;;4997211;28;20022;-77
2021/12/25 05:42:40;;;;;;;25.35;13.45;;;-9.40;96.30;;;;;;4995756;28;20026;-78
2021/12/25 05:45:07;;;;;;;22.30;11.18;;;-9.40;96.20;;;;;;4997715;28;20105;-80
2021/12/25 05:47:33;;;;;;;22.88;12.00;;;-9.40;96.30;;;;;;4997325;28;20505;-78
2021/12/25 05:49:59;;;;;;;15.20;10.27;;;-9.40;96.40;;;;;;4997369;28;20113;-79
2021/12/25 05:52:25;;;;;;;23.70;12.85;;;-9.30;96.40;;;;;;4996768;28;20050;-78
2021/12/25 05:54:51;;;;;;;15.07;10.33;;;-9.30;96.40;;;;;;4995688;28;20034;-78
2021/12/25 05:57:18;;;;;;;20.95;12.05;;;-9.30;96.80;;;;;;4997246;28;20256;-78
2021/12/25 05:59:43;;;;;;;18.90;10.48;;;-9.20;96.60;;;;;;5011742;28;20133;-78
2021/12/25 06:02:09;;;;;;;26.77;12.13;;;-9.20;96.60;;;;;;4993784;28;20022;-77
2021/12/25 06:04:35;;;;;;;17.10;10.40;;;-9.10;96.60;;;;;;5003056;28;20026;-77
2021/12/25 06:07:02;;;;;;;24.15;12.57;;;-9.10;96.60;;;;;;5001787;28;20038;-76
2021/12/25 06:09:28;;;;;;;22.10;13.65;;;-9.10;96.60;;;;;;4998286;28;20068;-76
2021/12/25 06:11:54;;;;;;;18.23;7.53;;;-9.10;96.50;;;;;;4996090;28;20034;-76
2021/12/25 06:14:21;;;;;;;19.90;13.63;;;-9.00;96.60;;;;;;4996863;28;20368;-79
2021/12/25 06:16:48;;;;;;;;;;;-9.00;96.60;;;;;;4997044;28;20049;-79
2021/12/25 06:19:14;;;;;;;16.30;10.15;;;-9.00;96.60;;;;;;4996404;28;19912;-78
2021/12/25 06:21:41;;;;;;;30.87;13.17;;;-9.00;96.60;;;;;;4996839;28;20038;-77
2021/12/25 06:24:08;;;;;;;21.67;11.30;;;-9.00;96.60;;;;;;4996266;28;20280;-77
2021/12/25 06:26:36;;;;;;;21.23;11.57;;;-9.00;96.70;;;;;;4995315;28;20033;-78
2021/12/25 06:29:03;;;;;;;24.88;13.93;;;-8.90;96.70;;;;;;4986505;28;20249;-79
2021/12/25 06:31:29;;;;;;;17.20;10.02;;;-8.90;96.70;;;;;;4998349;28;20058;-78
2021/12/25 06:33:57;;;;;;;26.65;14.07;;;-8.90;96.80;;;;;;4976540;28;20078;-77
2021/12/25 06:36:23;;;;;;;17.33;8.27;;;-8.80;96.90;;;;;;4976289;28;20047;-78
2021/12/25 06:38:49;;;;;;;22.95;13.60;;;-8.80;96.90;;;;;;4987199;28;20049;-77
2021/12/25 06:41:14;;;;;;;20.85;12.20;;;-8.70;97.00;;;;;;4995799;28;20026;-77
2021/12/25 06:43:41;;;;;;;23.27;10.15;;;-8.70;96.90;;;;;;4995713;28;20061;-77
2021/12/25 06:46:07;;;;;;;22.20;12.38;;;-8.70;96.90;;;;;;4995657;28;20104;-77
2021/12/25 06:48:33;;;;;;;18.50;7.68;;;-8.60;96.90;;;;;;4995750;28;20112;-77
2021/12/25 06:50:59;;;;;;;23.10;13.15;;;-8.60;96.90;;;;;;4994286;28;20030;-77
2021/12/25 06:53:25;;;;;;;25.40;11.38;;;-8.60;96.90;;;;;;4995324;28;20034;-76
2021/12/25 06:55:50;;;;;;;24.95;14.73;;;-8.60;96.80;;;;;;4996218;28;20109;-77
2021/12/25 06:58:17;;;;;;;23.30;12.70;;;-8.60;96.90;;;;;;4995328;28;20073;-77
2021/12/25 07:00:43;;;;;;;29.60;12.67;;;-8.50;96.90;;;;;;4995368;28;20014;-78
2021/12/25 07:03:08;;;;;;;11.52;6.80;;;-8.50;96.80;;;;;;4995987;28;20264;-77
2021/12/25 07:05:35;;;;;;;16.08;9.02;;;-8.50;96.70;;;;;;4995926;28;20336;-80
2021/12/25 07:08:00;;;;;;;11.18;6.45;;;-8.40;96.50;;;;;;4995666;28;20041;-77
2021/12/25 07:10:29;;;;;;;24.40;15.02;;;-8.40;96.60;;;;;;4995267;28;20033;-78
2021/12/25 07:12:55;;;;;;;15.82;10.20;;;-8.40;96.70;;;;;;4995166;28;20074;-79
2021/12/25 07:15:21;;;;;;;20.80;11.50;;;-8.40;96.50;;;;;;4994265;28;20065;-79
2021/12/25 07:17:47;;;;;;;14.27;8.52;;;-8.40;96.40;;;;;;4995319;28;20054;-78
2021/12/25 07:20:13;;;;;;;22.15;11.82;;;-8.40;96.50;;;;;;4995507;28;20030;-78
2021/12/25 07:22:39;;;;;;;16.27;9.75;;;-8.40;96.40;;;;;;4997098;28;20066;-77
2021/12/25 07:25:06;;;;;;;22.50;13.05;;;-8.40;96.50;;;;;;4996424;28;20046;-78
2021/12/25 07:27:32;;;;;;;;;;;-8.40;96.70;;;;;;4996333;28;20042;-80
2021/12/25 07:29:57;;;;;;;22.23;9.80;;;-8.30;96.60;;;;;;4995804;28;19909;-78
2021/12/25 07:32:23;;;;;;;18.10;7.65;;;-8.30;96.40;;;;;;4994963;28;20022;-79
2021/12/25 07:34:50;;;;;;;14.48;6.53;;;-8.30;96.60;;;;;;4993891;28;20058;-80
2021/12/25 07:37:17;;;;;;;22.35;10.77;;;-8.30;96.60;;;;;;4994546;28;20046;-77
2021/12/25 07:39:43;;;;;;;28.73;14.52;;;-8.20;96.70;;;;;;4995049;28;20037;-78
2021/12/25 07:42:11;;;;;;;24.40;14.38;;;-8.20;96.60;;;;;;4994821;28;20471;-77
2021/12/25 07:44:37;;;;;;;;;;;-8.20;96.80;;;;;;4995241;28;20030;-79
2021/12/25 07:47:08;;;;;;;23.92;12.77;;;-8.10;96.80;;;;;;4993107;28;19913;-78
2021/12/25 07:49:34;;;;;;;14.57;7.60;;;-8.10;96.80;;;;;;4994807;28;20018;-78
2021/12/25 07:52:00;;;;;;;14.38;8.65;;;-8.00;96.90;;;;;;4994722;28;20122;-78
2021/12/25 07:54:26;;;;;;;19.15;8.60;;;-8.00;96.80;;;;;;4994473;28;20122;-79
2021/12/25 07:56:52;;;;;;;26.08;13.50;;;-7.90;96.80;;;;;;4995899;28;20404;-79
2021/12/25 07:59:19;;;;;;;17.80;6.93;;;-7.90;96.70;;;;;;4995280;28;20468;-77
2021/12/25 08:01:46;;;;;;;14.73;8.57;;;-7.90;96.90;;;;;;4994643;28;20022;-78
2021/12/25 08:04:11;;;;;;;20.80;11.93;;;-7.80;97.00;;;;;;4992901;28;20034;-79
2021/12/25 08:06:39;;;;;;;28.00;12.77;;;-7.80;96.90;;;;;;4994348;28;20032;-77
2021/12/25 08:09:05;;;;;;;24.25;13.02;;;-7.80;97.00;;;;;;4994243;28;20026;-78
2021/12/25 08:11:31;;;;;;;24.50;10.45;;;-7.70;97.10;;;;;;4994031;28;20356;-78
2021/12/25 08:13:58;;;;;;;22.75;13.38;;;-7.70;96.90;;;;;;4994301;28;20042;-78
2021/12/25 08:16:24;;;;;;;18.60;12.20;;;-7.60;96.70;;;;;;4994420;28;20080;-79
2021/12/25 08:18:49;;;;;;;18.25;10.95;;;-7.60;96.80;;;;;;4993697;28;20117;-78
2021/12/25 08:21:15;;;;;;;18.17;9.82;;;-7.50;96.90;;;;;;4994558;28;20430;-78
2021/12/25 08:23:41;;;;;;;11.57;7.43;;;-7.50;96.80;;;;;;4994305;28;20045;-78
2021/12/25 08:26:08;;;;;;;22.83;12.10;;;-7.50;96.50;;;;;;4993747;28;20018;-78
2021/12/25 08:28:34;;;;;;;19.40;11.30;;;-7.50;96.30;;;;;;4993950;28;20495;-77
2021/12/25 08:31:01;;;;;;;21.77;12.95;;;-7.50;96.50;;;;;;4994388;28;20026;-76
2021/12/25 08:33:27;;;;;;;20.97;11.83;;;-7.40;96.90;;;;;;4993907;28;20042;-79
2021/12/25 08:35:52;;;;;;;24.48;13.52;;;-7.30;97.30;;;;;;4993675;28;20252;-78
2021/12/25 08:38:18;;;;;;;25.92;12.45;;;-7.20;97.40;;;;;;4992797;28;20499;-76
2021/12/25 08:40:44;;;;;;;22.95;11.95;;;-7.10;97.40;;;;;;4994867;28;20019;-78
2021/12/25 08:43:10;;;;;;;16.73;11.07;;;-7.00;97.40;;;;;;4995366;28;20036;-76
2021/12/25 08:48:26;;;;;;;20.38;11.48;;;-6.80;97.40;;;;;;4988987;28;20503;-78
2021/12/25 08:50:55;;;;;;;21.75;13.48;;;-6.70;97.40;;;;;;4988764;28;20026;-80
2021/12/25 08:53:23;;;;;;;21.80;13.50;;;-6.60;97.30;;;;;;4992926;28;20089;-79
2021/12/25 08:55:51;;;;;;;21.65;12.55;;;-6.50;97.30;;;;;;4993460;28;20110;-75
2021/12/25 08:58:17;;;;;;;18.10;12.50;;;-6.40;97.30;;;;;;4993146;28;20395;-80
2021/12/25 09:00:44;;;;;;;19.05;11.68;;;-6.30;97.40;;;;;;4993014;28;20018;-79
2021/12/25 09:03:10;;;;;;;17.70;10.25;;;-6.20;97.20;;;;;;4993056;28;20379;-76
2021/12/25 09:05:37;;;;;;;22.30;12.88;;;-6.10;97.10;;;;;;4990235;28;20026;-78
2021/12/25 09:08:03;;;;;;;20.40;11.93;;;-6.00;96.80;;;;;;4992929;28;20138;-77
2021/12/25 09:10:29;;;;;;;20.20;12.90;;;-5.90;96.60;;;;;;4993393;28;20475;-78
2021/12/25 09:12:58;;;;;;;20.45;12.10;;;-5.90;96.30;;;;;;4991494;28;20034;-76
2021/12/25 09:15:25;;;;;;;23.23;14.32;;;-5.80;96.10;;;;;;4979984;28;20073;-76
2021/12/25 09:17:52;;;;;;;22.67;11.98;;;-5.80;96.30;;;;;;4993306;28;20022;-77
2021/12/25 09:20:20;;;;;;;16.60;8.68;;;-5.80;95.90;;;;;;4980492;28;20027;-77
2021/12/25 09:22:46;;;;;;;19.08;10.30;;;-5.80;95.80;;;;;;4983586;28;20050;-78
2021/12/25 09:25:13;;;;;;;23.05;13.52;;;-5.80;95.60;;;;;;4992348;28;20037;-80
2021/12/25 09:27:39;;;;;;;18.05;9.93;;;-5.70;95.50;;;;;;4986507;28;20027;-78
2021/12/25 09:30:06;;;;;;;20.88;13.18;;;-5.70;95.40;;;;;;4988708;28;20037;-79
2021/12/25 09:32:32;;;;;;;24.02;12.10;;;-5.70;95.40;;;;;;4985086;28;20031;-78
2021/12/25 09:35:00;;;;;;;15.35;9.38;;;-5.70;95.40;;;;;;4992024;28;20038;-77
2021/12/25 09:37:27;;;;;;;25.35;12.10;;;-5.60;95.40;;;;;;4992842;28;20070;-75
2021/12/25 09:39:53;;;;;;;21.25;13.23;;;-5.60;95.20;;;;;;4993119;28;20022;-76
2021/12/25 09:42:21;;;;;;;19.08;12.57;;;-5.60;94.90;;;;;;4992617;28;20053;-74
2021/12/25 09:44:47;;;;;;;18.42;11.90;;;-5.60;94.70;;;;;;4992608;28;20018;-76
2021/12/25 09:47:13;;;;;;;22.80;13.32;;;-5.60;94.60;;;;;;4992342;28;20052;-75
2021/12/25 09:49:39;;;;;;;20.85;12.45;;;-5.60;94.60;;;;;;4992493;28;20395;-74
2021/12/25 09:52:05;;;;;;;17.73;13.18;;;-5.60;94.40;;;;;;4992819;28;20077;-76
2021/12/25 09:54:31;;;;;;;20.83;12.05;;;-5.60;94.50;;;;;;4992731;28;20027;-82
2021/12/25 09:56:58;;;;;;;21.98;12.95;;;-5.60;94.60;;;;;;4993294;28;20026;-83
2021/12/25 09:59:24;;;;;;;23.25;13.63;;;-5.60;94.50;;;;;;4992692;28;20396;-80
2021/12/25 10:01:55;;;;;;;20.13;10.20;;;-5.60;94.50;;;;;;4985660;28;20033;-83
2021/12/25 10:04:35;;;;;;;17.77;12.20;;;-5.70;94.70;;;;;;4996689;28;20490;-83
2021/12/25 10:07:24;;;;;;;22.50;13.60;;;-5.70;94.90;;;;;;4991648;28;20084;-81
2021/12/25 10:10:22;;;;;;;17.75;11.50;;;-5.70;95.00;;;;;;4994433;28;20019;-80
2021/12/25 10:12:50;;;;;;;18.52;11.13;;;-5.60;94.80;;;;;;5006274;28;20051;-83
2021/12/25 10:15:22;;;;;;;20.80;12.55;;;-5.70;94.70;;;;;;4996886;28;20015;-82
2021/12/25 10:17:51;;;;;;;20.30;13.73;;;-5.70;95.10;;;;;;5000224;28;20018;-80
2021/12/25 10:20:24;;;;;;;21.10;10.80;;;-5.70;95.10;;;;;;4998808;28;20065;-79
2021/12/25 10:22:55;;;;;;;18.98;11.68;;;-5.70;94.90;;;;;;4998953;28;20472;-81
2021/12/25 10:25:22;;;;;;;21.80;14.32;;;-5.70;94.80;;;;;;4991686;28;20042;-85
2021/12/25 10:27:57;;;;;;;25.67;13.85;;;-5.80;94.70;;;;;;4980408;28;20038;-88
2021/12/25 10:30:24;;;;;;;22.17;14.52;;;-5.80;94.60;;;;;;4994062;28;20022;-85
2021/12/25 10:32:50;;;;;;;13.75;9.02;;;-5.80;94.70;;;;;;4980917;28;20031;-83
2021/12/25 10:35:20;;;;;;;13.80;7.35;;;-5.80;94.60;;;;;;4978726;28;20058;-85
2021/12/25 10:37:48;;;;;;;13.40;9.02;;;-5.70;94.40;;;;;;4978779;28;20051;-82
2021/12/25 10:40:28;;;;;;;15.05;9.52;;;-5.80;94.20;;;;;;4981394;28;20042;-83
2021/12/25 10:42:59;;;;;;;19.58;11.30;;;-5.80;94.30;;;;;;4983945;28;20027;-78
2021/12/25 10:45:28;;;;;;;19.60;13.23;;;-5.80;94.20;;;;;;4987922;28;20022;-81
2021/12/25 10:48:03;;;;;;;19.17;9.50;;;-5.80;93.90;;;;;;5003870;28;20026;-83
2021/12/25 10:50:35;;;;;;;19.77;10.93;;;-5.90;94.20;;;;;;4996398;28;20360;-79
2021/12/25 10:53:05;;;;;;;14.25;9.98;;;-5.90;94.00;;;;;;4998235;28;20037;-80
2021/12/25 10:55:31;;;;;;;13.15;9.15;;;-5.90;94.00;;;;;;4995953;28;20026;-79
2021/12/25 10:57:59;;;;;;;13.23;8.82;;;-5.90;93.90;;;;;;4995693;28;20057;-79
2021/12/25 11:00:24;;;;;;;22.33;12.75;;;-5.90;93.80;;;;;;4995452;28;20023;-81
2021/12/25 11:03:00;;;;;;;19.05;11.30;;;-5.80;93.80;;;;;;4994603;28;20030;-82
2021/12/25 11:05:32;;;;;;;15.95;8.65;;;-5.80;93.60;;;;;;4995762;28;20026;-81
2021/12/25 11:08:08;;;;;;;25.08;14.55;;;-5.80;93.40;;;;;;4995751;28;20033;-81
2021/12/25 11:10:46;;;;;;;27.83;11.45;;;-5.80;93.30;;;;;;4993858;28;20027;-80
2021/12/25 11:13:41;;;;;;;11.45;7.38;;;-5.90;93.30;;;;;;4995603;28;20061;-82
2021/12/25 11:16:15;;;;;;;15.90;8.10;;;-6.00;93.00;;;;;;4993316;28;20400;-79
2021/12/25 11:21:30;;;;;;;18.35;9.98;;;-6.20;93.30;;;;;;4995311;28;20034;-84
2021/12/25 11:24:04;;;;;;;13.50;8.23;;;-6.30;93.50;;;;;;5010170;28;20034;-83
2021/12/25 11:26:31;;;;;;;10.80;6.93;;;-6.40;93.60;;;;;;4995247;28;20057;-81
2021/12/25 11:28:57;;;;;;;9.40;6.65;;;-6.40;93.50;;;;;;4995465;28;20025;-81
2021/12/25 11:31:23;;;;;;;7.45;5.35;;;-6.40;93.50;;;;;;4996064;28;20468;-81
2021/12/25 11:33:50;;;;;;;10.95;6.28;;;-6.50;93.70;;;;;;4995236;28;20039;-81
2021/12/25 11:36:17;;;;;;;;;;;-6.60;94.00;;;;;;4993834;28;20037;-82
2021/12/25 11:38:43;;;;;;;8.35;5.88;;;-6.60;93.80;;;;;;4995607;28;19952;-80
2021/12/25 11:41:11;;;;;;;12.30;7.25;;;-6.60;93.70;;;;;;4995040;28;20468;-79
2021/12/25 11:43:40;;;;;;;11.68;6.25;;;-6.60;93.80;;;;;;4985794;28;20120;-81
2021/12/25 11:46:08;;;;;;;8.13;5.45;;;-6.70;94.10;;;;;;4994823;28;20104;-82
2021/12/25 11:48:35;;;;;;;8.48;6.45;;;-6.70;93.80;;;;;;4994868;28;20093;-79
2021/12/25 11:51:01;;;;;;;7.40;5.18;;;-6.70;93.70;;;;;;4975532;28;20039;-80
2021/12/25 11:53:46;;;;;;;11.15;5.82;;;-6.80;93.50;;;;;;4981341;28;20506;-80
2021/12/25 11:59:13;;;;;;;9.30;5.20;;;-6.80;93.40;;;;;;4994683;28;20173;-81
2021/12/25 12:01:51;;;;;;;8.68;4.68;;;-6.80;93.60;;;;;;4994771;28;20020;-82
2021/12/25 12:04:19;;;;;;;7.63;4.20;;;-6.90;93.60;;;;;;4995898;28;20029;-81
2021/12/25 12:06:53;;;;;;;8.75;5.50;;;-6.90;93.60;;;;;;4995826;28;20022;-84
2021/12/25 12:09:19;;;;;;;5.38;3.08;;;-6.90;93.70;;;;;;4995180;28;20496;-83
2021/12/25 12:11:48;;;;;;;7.05;4.13;;;-6.90;93.50;;;;;;4992861;28;20026;-81
2021/12/25 12:14:16;;;;;;;5.85;3.63;;;-6.90;93.60;;;;;;4994528;28;20049;-82
2021/12/25 12:16:51;;;;;;;10.27;5.97;;;-6.90;93.70;;;;;;4993454;28;20105;-81
2021/12/25 12:19:33;;;;;;;6.45;4.15;;;-6.90;93.90;;;;;;4994438;28;20127;-84
2021/12/25 12:22:00;;;;;;;7.32;4.20;;;-6.90;93.90;;;;;;4994182;28;20483;-81
2021/12/25 12:26:59;;;;;;;8.80;5.40;;;-6.90;94.20;;;;;;4994875;28;20104;-82
2021/12/25 12:29:40;;;;;;;7.22;4.43;;;-6.80;94.40;;;;;;4993191;28;20030;-82
2021/12/25 12:32:20;;;;;;;9.13;4.75;;;-6.80;94.70;;;;;;4994661;28;20098;-84
2021/12/25 12:34:48;;;;;;;9.27;4.53;;;-6.80;94.40;;;;;;4993982;28;20034;-82
2021/12/25 12:37:13;;;;;;;15.63;7.88;;;-6.80;94.50;;;;;;4994063;28;20050;-81
2021/12/25 12:40:05;;;;;;;8.95;4.50;;;-6.80;94.70;;;;;;4994802;28;20026;-81
2021/12/25 12:42:54;;;;;;;14.20;6.72;;;-6.80;94.70;;;;;;4996156;28;20026;-80
2021/12/25 12:45:35;;;;;;;9.45;5.00;;;-6.70;94.80;;;;;;4996305;28;20085;-81
2021/12/25 12:48:06;;;;;;;8.57;4.82;;;-6.70;94.80;;;;;;4983567;28;20031;-81
2021/12/25 12:50:34;;;;;;;6.70;3.78;;;-6.80;94.70;;;;;;4985926;28;20050;-81
2021/12/25 12:53:01;;;;;;;6.65;3.40;;;-6.80;94.70;;;;;;4994962;28;20026;-80
2021/12/25 12:55:29;;;;;;;5.32;3.42;;;-6.70;94.60;;;;;;4996229;28;20030;-78
2021/12/25 12:58:16;;;;;;;6.38;3.75;;;-6.80;94.40;;;;;;4996417;28;20379;-81
2021/12/25 13:00:49;;;;;;;5.65;3.42;;;-6.80;94.00;;;;;;4992689;28;20407;-80
2021/12/25 13:03:16;;;;;;;4.00;2.13;;;-6.80;93.80;;;;;;4994205;28;20395;-81
2021/12/25 13:05:49;;;;;;;3.25;2.72;;;-6.80;93.50;;;;;;4992737;28;20514;-82
2021/12/25 13:08:14;;;;;;;3.70;2.58;;;-6.80;93.10;;;;;;4992184;28;20045;-81
2021/12/25 13:10:51;;;;;;;2.97;1.80;;;-6.80;93.40;;;;;;4994713;28;20510;-82
2021/12/25 13:13:25;;;;;;;3.58;2.53;;;-6.80;93.40;;;;;;4998669;28;20035;-81
2021/12/25 13:15:58;;;;;;;5.05;3.08;;;-6.80;93.50;;;;;;5003852;28;20054;-80
2021/12/25 13:18:32;;;;;;;4.22;3.25;;;-6.80;93.60;;;;;;4994934;28;20057;-79
2021/12/25 13:20:58;;;;;;;3.80;2.42;;;-6.70;93.50;;;;;;4973613;28;20030;-81
2021/12/25 13:23:33;;;;;;;2.78;1.67;;;-6.70;93.50;;;;;;4973056;28;20369;-80
2021/12/25 13:26:09;;;;;;;3.72;2.13;;;-6.70;93.30;;;;;;4972523;28;20034;-79
2021/12/25 13:28:42;;;;;;;4.07;2.28;;;-6.70;93.30;;;;;;4972543;28;20022;-80
2021/12/25 13:31:09;;;;;;;3.22;2.10;;;-6.70;93.30;;;;;;4972215;28;20055;-80
2021/12/25 13:33:45;;;;;;;2.10;1.80;;;-6.70;93.10;;;;;;4972614;28;20039;-81
2021/12/25 13:36:13;;;;;;;3.35;2.03;;;-6.80;93.40;;;;;;4976274;28;20034;-79
2021/12/25 13:38:44;;;;;;;3.88;2.20;;;-6.80;93.40;;;;;;4976247;28;20484;-81
2021/12/25 13:41:10;;;;;;;2.72;1.70;;;-6.80;93.10;;;;;;4981329;28;20381;-83
2021/12/25 13:43:36;;;;;;;2.55;1.52;;;-6.90;92.80;;;;;;5003905;28;20085;-82
2021/12/25 13:46:02;;;;;;;1.92;1.48;;;-7.00;92.70;;;;;;5000204;28;20018;-82
2021/12/25 13:48:35;;;;;;;3.97;2.10;;;-7.00;92.80;;;;;;4997944;28;20056;-80
2021/12/25 13:51:02;;;;;;;3.17;1.83;;;-7.00;92.90;;;;;;4989871;28;20026;-82
2021/12/25 13:53:29;;;;;;;5.70;1.75;;;-7.10;92.70;;;;;;4984731;28;20038;-82
2021/12/25 13:55:55;;;;;;;2.38;1.60;;;-7.10;92.40;;;;;;4996331;28;20549;-83